Time;durP1;ratioP1;P1;durP2;ratioP2;P2;SDS_P1;SDS_P2;PMS_P1;PMS_P2;Temp;Humidity;BMP_temperature;BMP_pressure;BME280_temperature;BME280_humidity;BME280_pressure;Samples;Min_cycle;Max_cycle;Signal;HPM_P1;HPM_P2
2023/03/30 00:00:22;;;;;;;7.35;2.53;;;;;;;11.59;100.00;99993.25;696143;28;1038;-64
2023/03/30 00:00:45;;;;;;;7.32;2.78;;;;;;;11.61;100.00;99989.75;690537;28;4537;-64
2023/03/30 00:01:11;;;;;;;5.10;2.17;;;;;;;11.56;100.00;99990.69;691349;28;1472;-64
2023/03/30 00:01:31;;;;;;;6.05;2.38;;;;;;;11.55;100.00;99980.25;692617;28;1386;-64
2023/03/30 00:01:53;;;;;;;5.43;2.42;;;;;;;11.54;100.00;99989.00;690997;28;915;-63
2023/03/30 00:02:17;;;;;;;5.68;2.40;;;;;;;11.59;100.00;99985.41;691345;28;928;-64
2023/03/30 00:02:37;;;;;;;5.43;2.50;;;;;;;11.58;100.00;99991.50;696594;28;738;-63
2023/03/30 00:03:01;;;;;;;6.67;2.30;;;;;;;11.57;100.00;99984.56;698494;28;1617;-63
2023/03/30 00:03:23;;;;;;;5.85;2.22;;;;;;;11.67;100.00;99984.38;697674;28;1015;-64
2023/03/30 00:03:45;;;;;;;4.97;2.30;;;;;;;11.71;100.00;99989.53;696507;28;4531;-64
2023/03/30 00:04:05;;;;;;;5.85;2.60;;;;;;;11.69;100.00;99983.44;694684;28;944;-64
2023/03/30 00:04:25;;;;;;;6.50;2.40;;;;;;;11.72;100.00;99977.28;695568;28;1284;-64
2023/03/30 00:04:46;;;;;;;5.80;2.38;;;;;;;11.74;100.00;99975.50;694211;28;1236;-64
2023/03/30 00:05:07;;;;;;;7.47;2.50;;;;;;;11.72;100.00;99978.16;693371;28;1472;-64
2023/03/30 00:05:28;;;;;;;7.10;2.40;;;;;;;11.74;100.00;99978.09;692969;28;936;-63
2023/03/30 00:05:56;;;;;;;5.93;2.38;;;;;;;11.80;100.00;99975.38;692445;28;1003;-64
2023/03/30 00:06:21;;;;;;;4.10;2.38;;;;;;;11.78;100.00;99971.06;690965;28;1215;-64
2023/03/30 00:06:41;;;;;;;5.72;2.50;;;;;;;11.74;100.00;99976.38;691806;28;4372;-63
2023/03/30 00:07:04;;;;;;;4.97;2.35;;;;;;;11.73;100.00;99976.41;694537;28;1463;-64
2023/03/30 00:07:24;;;;;;;4.72;2.35;;;;;;;11.72;100.00;99978.16;694574;28;821;-64
2023/03/30 00:07:45;;;;;;;5.07;2.43;;;;;;;11.76;100.00;99982.44;693786;28;853;-63
2023/03/30 00:08:06;;;;;;;5.60;2.30;;;;;;;11.75;100.00;99980.72;693992;28;1517;-65
2023/03/30 00:08:29;;;;;;;7.07;2.40;;;;;;;11.75;100.00;99980.72;694564;28;923;-64
2023/03/30 00:08:52;;;;;;;6.40;2.50;;;;;;;11.73;100.00;99979.88;695008;28;900;-64
2023/03/30 00:09:13;;;;;;;5.70;2.40;;;;;;;11.74;100.00;99981.59;694948;28;940;-64
2023/03/30 00:09:41;;;;;;;5.10;2.33;;;;;;;11.76;100.00;99979.81;693135;28;1910;-64
2023/03/30 00:10:02;;;;;;;6.20;2.20;;;;;;;11.74;100.00;99983.34;695724;28;4901;-64
2023/03/30 00:10:23;;;;;;;6.03;2.20;;;;;;;11.71;100.00;99986.03;697056;28;979;-63
2023/03/30 00:10:44;;;;;;;5.82;2.45;;;;;;;11.70;100.00;99981.69;697150;28;916;-64
2023/03/30 00:11:16;;;;;;;4.78;2.35;;;;;;;11.72;100.00;99982.53;695231;28;1439;-63
2023/03/30 00:11:36;;;;;;;5.05;2.42;;;;;;;11.78;100.00;99974.53;696156;28;833;-63
2023/03/30 00:12:02;;;;;;;4.83;2.30;;;;;;;11.84;100.00;99984.03;692767;28;1443;-64
2023/03/30 00:12:22;;;;;;;6.72;2.40;;;;;;;11.82;100.00;99977.97;693036;28;980;-64
2023/03/30 00:12:43;;;;;;;6.32;2.40;;;;;;;11.80;100.00;99970.13;691935;28;4538;-64
2023/03/30 00:13:04;;;;;;;5.47;2.30;;;;;;;11.80;100.00;99974.53;691711;28;1604;-64
2023/03/30 00:13:26;;;;;;;5.93;2.20;;;;;;;11.81;100.00;99968.38;691794;28;932;-64
2023/03/30 00:13:46;;;;;;;5.35;2.25;;;;;;;11.85;100.00;99968.31;693622;28;1257;-64
2023/03/30 00:14:07;;;;;;;5.75;2.25;;;;;;;11.84;100.00;99958.72;695242;28;1504;-64
2023/03/30 00:14:28;;;;;;;6.63;2.20;;;;;;;11.83;100.00;99964.84;695698;28;1433;-64
2023/03/30 00:14:49;;;;;;;5.32;2.22;;;;;;;11.80;100.00;99967.53;695109;28;1016;-63
2023/03/30 00:15:11;;;;;;;6.33;2.67;;;;;;;11.79;100.00;99959.69;697714;28;1636;-64
2023/03/30 00:15:31;;;;;;;5.32;2.40;;;;;;;11.79;100.00;99970.19;697675;28;911;-64
2023/03/30 00:15:52;;;;;;;5.32;2.22;;;;;;;11.76;100.00;99961.47;696705;28;4272;-64
2023/03/30 00:16:13;;;;;;;6.13;2.30;;;;;;;11.74;100.00;99959.78;696984;28;3480;-63
2023/03/30 00:16:33;;;;;;;5.88;2.40;;;;;;;11.79;100.00;99965.78;698128;28;1003;-64
2023/03/30 00:16:55;;;;;;;6.97;2.40;;;;;;;11.79;100.00;99960.56;696634;28;1388;-64
2023/03/30 00:17:16;;;;;;;7.25;2.40;;;;;;;11.77;100.00;99959.75;697552;28;1046;-64
2023/03/30 00:17:37;;;;;;;6.13;2.35;;;;;;;11.73;100.00;99960.69;698899;28;1385;-63
2023/03/30 00:17:57;;;;;;;5.70;2.42;;;;;;;11.79;100.00;99962.31;697433;28;883;-64
2023/03/30 00:18:18;;;;;;;5.17;2.23;;;;;;;11.76;100.00;99958.84;698552;28;1018;-64
2023/03/30 00:18:39;;;;;;;5.77;2.30;;;;;;;11.75;100.00;99959.78;697439;28;4288;-64
2023/03/30 00:19:00;;;;;;;6.10;2.40;;;;;;;11.74;100.00;99967.63;694378;28;1468;-64
2023/03/30 00:19:20;;;;;;;7.80;2.40;;;;;;;11.70;100.00;99965.97;697057;28;1477;-63
2023/03/30 00:19:40;;;;;;;6.50;2.40;;;;;;;11.66;100.00;99957.34;696373;28;758;-63
2023/03/30 00:20:03;;;;;;;5.30;2.30;;;;;;;11.79;100.00;99967.56;695374;28;1564;-63
2023/03/30 00:20:23;;;;;;;5.47;2.17;;;;;;;11.84;100.00;99961.31;695948;28;964;-63
2023/03/30 00:20:47;;;;;;;6.05;2.20;;;;;;;11.86;100.00;99956.91;696573;28;1365;-64
2023/03/30 00:21:10;;;;;;;5.60;2.13;;;;;;;11.87;100.00;99957.78;696436;28;1475;-63
2023/03/30 00:21:32;;;;;;;5.65;2.20;;;;;;;11.91;100.00;99967.31;698099;28;1078;-63
2023/03/30 00:21:52;;;;;;;5.40;2.03;;;;;;;11.89;100.00;99951.63;696020;28;4550;-64
2023/03/30 00:22:13;;;;;;;5.72;2.20;;;;;;;11.97;100.00;99956.72;697744;28;919;-63
2023/03/30 00:22:33;;;;;;;5.80;2.20;;;;;;;11.95;100.00;99947.16;699940;28;1326;-63
2023/03/30 00:22:54;;;;;;;5.17;2.37;;;;;;;11.92;100.00;99948.94;697132;28;1610;-63
2023/03/30 00:23:14;;;;;;;4.90;2.30;;;;;;;11.89;100.00;99958.59;698011;28;1042;-64
2023/03/30 00:23:35;;;;;;;5.88;2.40;;;;;;;11.91;100.00;99949.81;697508;28;956;-64
2023/03/30 00:23:55;;;;;;;6.47;2.55;;;;;;;11.95;100.00;99953.28;698089;28;1496;-64
2023/03/30 00:24:15;;;;;;;7.27;2.47;;;;;;;11.93;100.00;99940.19;696146;28;908;-64
2023/03/30 00:24:36;;;;;;;6.37;2.53;;;;;;;11.92;100.00;99942.81;695896;28;757;-64
2023/03/30 00:24:56;;;;;;;6.53;2.60;;;;;;;11.95;100.00;99942.81;691000;28;4385;-63
2023/03/30 00:25:17;;;;;;;5.97;2.33;;;;;;;11.93;100.00;99944.53;692207;28;931;-63
2023/03/30 00:25:38;;;;;;;4.70;2.20;;;;;;;11.97;100.00;99943.63;693182;28;1346;-63
2023/03/30 00:25:58;;;;;;;5.40;2.20;;;;;;;12.02;100.00;99952.25;691350;28;1606;-63
2023/03/30 00:26:19;;;;;;;5.27;2.17;;;;;;;12.07;100.00;99944.28;694973;28;835;-64
2023/03/30 00:26:39;;;;;;;5.53;2.20;;;;;;;12.04;100.00;99939.97;693532;28;1028;-64
2023/03/30 00:27:00;;;;;;;5.37;2.10;;;;;;;12.04;100.00;99946.97;692622;28;1556;-64
2023/03/30 00:27:20;;;;;;;5.93;2.20;;;;;;;12.01;100.00;99954.91;692252;28;1536;-64
2023/03/30 00:27:42;;;;;;;6.30;2.10;;;;;;;11.98;100.00;99947.13;692797;28;4384;-64
2023/03/30 00:28:05;;;;;;;6.68;2.40;;;;;;;11.94;100.00;99941.06;692080;28;1709;-63
2023/03/30 00:28:29;;;;;;;5.85;2.20;;;;;;;11.95;100.00;99942.81;691323;28;849;-64
2023/03/30 00:28:51;;;;;;;5.13;2.10;;;;;;;11.93;100.00;99945.44;692730;28;1418;-64
2023/03/30 00:29:12;;;;;;;5.30;2.10;;;;;;;12.00;100.00;99945.31;695126;28;1457;-64
2023/03/30 00:29:35;;;;;;;5.33;2.00;;;;;;;12.00;100.00;99951.41;692337;28;1474;-64
2023/03/30 00:29:55;;;;;;;6.35;2.20;;;;;;;12.02;100.00;99943.53;686608;28;1569;-64
2023/03/30 00:30:17;;;;;;;4.72;2.13;;;;;;;11.96;100.00;99944.50;687704;28;1326;-63
2023/03/30 00:30:38;;;;;;;4.50;2.10;;;;;;;11.95;100.00;99941.91;686589;28;809;-64
2023/03/30 00:30:59;;;;;;;4.57;2.17;;;;;;;11.93;100.00;99945.44;689432;28;4899;-63
2023/03/30 00:31:19;;;;;;;5.13;2.20;;;;;;;11.92;100.00;99938.47;689730;28;1539;-64
2023/03/30 00:31:40;;;;;;;5.10;2.30;;;;;;;11.91;100.00;99941.13;694159;28;1256;-63
2023/03/30 00:32:00;;;;;;;6.90;2.17;;;;;;;11.93;100.00;99937.56;694419;28;1490;-63
2023/03/30 00:32:21;;;;;;;5.53;2.07;;;;;;;11.96;100.00;99935.78;690808;28;1326;-63
2023/03/30 00:32:45;;;;;;;4.78;2.10;;;;;;;12.02;100.00;99944.38;690244;28;1468;-63
2023/03/30 00:33:05;;;;;;;5.32;2.20;;;;;;;12.02;100.00;99943.53;690231;28;1663;-64
2023/03/30 00:33:26;;;;;;;5.90;2.27;;;;;;;12.01;100.00;99934.78;690494;28;1412;-64
2023/03/30 00:33:46;;;;;;;4.90;2.42;;;;;;;12.12;100.00;99934.56;691223;28;4332;-64
2023/03/30 00:34:08;;;;;;;4.17;2.10;;;;;;;12.14;100.00;99938.00;689784;28;1502;-64
2023/03/30 00:34:28;;;;;;;5.15;2.17;;;;;;;12.11;100.00;99937.22;690991;28;1504;-64
2023/03/30 00:34:49;;;;;;;5.35;2.20;;;;;;;12.08;100.00;99933.75;691401;28;1166;-64
2023/03/30 00:35:11;;;;;;;5.13;2.03;;;;;;;12.04;100.00;99936.50;690158;28;1575;-63
2023/03/30 00:35:32;;;;;;;4.88;2.20;;;;;;;12.05;100.00;99940.84;693127;28;886;-63
2023/03/30 00:35:57;;;;;;;4.75;2.10;;;;;;;12.04;100.00;99932.09;692892;28;873;-63
2023/03/30 00:36:17;;;;;;;5.38;2.17;;;;;;;12.00;100.00;99940.91;693331;28;1331;-64
2023/03/30 00:36:40;;;;;;;6.53;2.30;;;;;;;11.98;100.00;99937.50;693539;28;4453;-63
2023/03/30 00:37:01;;;;;;;5.50;2.30;;;;;;;12.04;100.00;99941.72;693906;28;1577;-64
2023/03/30 00:37:22;;;;;;;5.28;2.30;;;;;;;12.00;100.00;99946.16;693776;28;941;-64
2023/03/30 00:37:44;;;;;;;6.97;2.40;;;;;;;12.00;100.00;99943.53;695238;28;896;-64
2023/03/30 00:38:05;;;;;;;5.95;2.40;;;;;;;12.01;100.00;99947.03;693585;28;1828;-63
2023/03/30 00:38:26;;;;;;;4.80;2.20;;;;;;;12.00;100.00;99945.31;693181;28;1157;-64
2023/03/30 00:38:47;;;;;;;5.57;2.30;;;;;;;11.97;100.00;99945.38;693174;28;5330;-64
2023/03/30 00:39:08;;;;;;;6.00;2.28;;;;;;;11.94;100.00;99954.16;690138;28;1015;-64
2023/03/30 00:39:28;;;;;;;6.15;2.30;;;;;;;11.95;100.00;99953.28;690542;28;1695;-63
2023/03/30 00:39:49;;;;;;;5.77;2.23;;;;;;;11.97;100.00;99950.63;690834;28;4333;-64
2023/03/30 00:40:15;;;;;;;6.03;2.22;;;;;;;11.95;100.00;99947.16;689449;28;1502;-64
2023/03/30 00:40:37;;;;;;;6.53;2.25;;;;;;;11.95;100.00;99953.28;689490;28;1398;-64
2023/03/30 00:40:59;;;;;;;5.55;2.35;;;;;;;11.94;100.00;99956.78;688397;28;1505;-64
2023/03/30 00:41:20;;;;;;;5.45;2.25;;;;;;;11.94;100.00;99951.53;688145;28;1005;-64
2023/03/30 00:41:41;;;;;;;5.07;2.00;;;;;;;11.97;100.00;99955.88;689002;28;785;-64
2023/03/30 00:42:01;;;;;;;5.30;2.20;;;;;;;12.11;100.00;99959.03;689431;28;1472;-64
2023/03/30 00:42:22;;;;;;;5.40;2.25;;;;;;;12.08;100.00;99953.88;687736;28;1608;-64
2023/03/30 00:42:43;;;;;;;5.97;2.40;;;;;;;12.06;100.00;99955.66;688051;28;4415;-64
2023/03/30 00:43:06;;;;;;;6.35;2.28;;;;;;;12.14;100.00;99958.09;687185;28;1603;-63
2023/03/30 00:43:28;;;;;;;5.50;2.00;;;;;;;12.16;100.00;99953.69;685029;28;833;-63
2023/03/30 00:44:06;;;;;;;4.72;2.30;;;;;;;12.21;100.00;99957.94;684896;28;1494;-64
2023/03/30 00:45:05;;;;;;;6.65;2.20;;;;;;;12.31;100.00;99962.94;686783;28;805;-63
2023/03/30 00:45:35;;;;;;;7.07;2.20;;;;;;;12.32;100.00;99962.06;690616;28;1392;-63
2023/03/30 00:45:56;;;;;;;7.65;2.42;;;;;;;12.37;100.00;99960.19;690029;28;4474;-64
2023/03/30 00:46:16;;;;;;;6.60;2.30;;;;;;;12.37;100.00;99960.19;689809;28;789;-63
2023/03/30 00:46:37;;;;;;;6.75;2.47;;;;;;;12.34;100.00;99962.91;692069;28;1129;-64
2023/03/30 00:46:57;;;;;;;5.10;2.50;;;;;;;12.29;100.00;99954.28;690134;28;934;-64
2023/03/30 00:47:18;;;;;;;5.80;2.28;;;;;;;12.33;100.00;99963.78;690484;28;1413;-63
2023/03/30 00:47:42;;;;;;;6.93;2.30;;;;;;;12.27;100.00;99963.03;690022;28;1044;-64
2023/03/30 00:48:14;;;;;;;4.90;2.13;;;;;;;12.23;100.00;99961.38;688885;28;1531;-63
2023/03/30 00:48:37;;;;;;;5.05;2.20;;;;;;;12.33;100.00;99955.94;689844;28;1354;-64
2023/03/30 00:49:04;;;;;;;4.75;2.20;;;;;;;12.37;100.00;99962.81;691880;28;4932;-63
2023/03/30 00:49:24;;;;;;;6.28;2.03;;;;;;;12.33;100.00;99963.78;692544;28;1179;-63
2023/03/30 00:49:45;;;;;;;5.75;2.20;;;;;;;12.29;100.00;99962.13;692933;28;1947;-63
2023/03/30 00:50:07;;;;;;;5.47;2.10;;;;;;;12.42;100.00;99963.59;689386;28;1577;-63
2023/03/30 00:50:37;;;;;;;6.43;2.25;;;;;;;12.46;100.00;99960.00;692774;28;1260;-63
2023/03/30 00:51:06;;;;;;;6.35;2.15;;;;;;;12.51;100.00;99949.38;689965;28;1588;-64
2023/03/30 00:51:27;;;;;;;7.35;2.20;;;;;;;12.51;100.00;99955.47;690313;28;1044;-64
2023/03/30 00:51:49;;;;;;;5.57;2.00;;;;;;;12.55;100.00;99954.50;690203;28;4281;-64
2023/03/30 00:52:11;;;;;;;6.07;2.28;;;;;;;12.51;100.00;99949.38;691166;28;1457;-64
2023/03/30 00:52:32;;;;;;;6.55;2.22;;;;;;;12.53;100.00;99950.19;694152;28;1217;-64
2023/03/30 00:52:57;;;;;;;7.33;2.20;;;;;;;12.54;100.00;99950.16;692588;28;1359;-63
2023/03/30 00:53:25;;;;;;;6.45;2.20;;;;;;;12.56;100.00;99947.53;692573;28;896;-64
2023/03/30 00:53:48;;;;;;;6.00;2.10;;;;;;;12.49;100.00;99948.53;691969;28;1402;-64
2023/03/30 00:54:15;;;;;;;5.13;2.20;;;;;;;12.48;100.00;99947.69;691326;28;2148;-64
2023/03/30 00:54:38;;;;;;;6.18;2.30;;;;;;;12.46;100.00;99941.66;692328;28;2138;-64
2023/03/30 00:55:01;;;;;;;6.57;2.30;;;;;;;12.47;100.00;99940.72;693720;28;4609;-64
2023/03/30 00:55:23;;;;;;;7.05;2.25;;;;;;;12.47;100.00;99932.84;692004;28;1209;-64
2023/03/30 00:55:48;;;;;;;6.32;2.33;;;;;;;12.40;100.00;99933.91;689833;28;888;-63
2023/03/30 00:56:12;;;;;;;6.25;2.25;;;;;;;12.35;100.00;99930.53;689446;28;2117;-64
2023/03/30 00:56:33;;;;;;;4.90;2.10;;;;;;;12.32;100.00;99931.47;688499;28;1020;-63
2023/03/30 00:56:54;;;;;;;5.25;2.22;;;;;;;12.38;100.00;99931.31;687757;28;1113;-63
2023/03/30 00:57:14;;;;;;;6.30;2.30;;;;;;;12.37;100.00;99928.75;688058;28;1411;-62
2023/03/30 00:57:37;;;;;;;6.88;2.28;;;;;;;12.34;100.00;99928.84;690978;28;1175;-63
2023/03/30 00:57:59;;;;;;;6.40;2.20;;;;;;;12.33;100.00;99932.34;687336;28;4718;-63
2023/03/30 00:58:21;;;;;;;5.82;2.17;;;;;;;12.30;100.00;99922.78;684882;28;1195;-64
2023/03/30 00:58:43;;;;;;;5.47;2.10;;;;;;;12.31;100.00;99928.88;682734;28;1264;-64
2023/03/30 00:59:04;;;;;;;5.50;2.10;;;;;;;12.33;100.00;99927.09;680160;29;2063;-64
2023/03/30 00:59:25;;;;;;;4.78;2.00;;;;;;;12.29;100.00;99920.22;683024;28;1340;-64
2023/03/30 00:59:46;;;;;;;5.17;2.03;;;;;;;12.25;100.00;99920.28;683607;28;775;-64
2023/03/30 01:00:09;;;;;;;6.25;2.38;;;;;;;12.22;100.00;99924.72;685725;28;1462;-64
2023/03/30 01:00:31;;;;;;;4.55;2.20;;;;;;;12.20;100.00;99924.75;684253;28;1455;-64
2023/03/30 01:00:57;;;;;;;5.88;2.10;;;;;;;12.23;100.00;99919.44;685237;28;4526;-64
2023/03/30 01:01:24;;;;;;;6.25;2.10;;;;;;;12.29;100.00;99925.44;687221;28;1377;-64
2023/03/30 01:01:49;;;;;;;5.43;2.20;;;;;;;12.26;100.00;99915.91;684448;28;2201;-64
2023/03/30 01:02:09;;;;;;;6.30;2.42;;;;;;;12.20;100.00;99910.81;682136;28;1663;-63
2023/03/30 01:02:31;;;;;;;6.30;2.37;;;;;;;12.19;100.00;99909.94;689704;28;1153;-61
2023/03/30 01:03:00;;;;;;;5.20;2.40;;;;;;;12.15;100.00;99913.53;689898;28;1031;-64
2023/03/30 01:03:26;;;;;;;6.00;2.30;;;;;;;12.15;100.00;99908.28;692169;28;1007;-64
2023/03/30 01:03:47;;;;;;;5.07;2.00;;;;;;;12.23;100.00;99908.97;689177;28;4600;-63
2023/03/30 01:04:09;;;;;;;4.40;1.95;;;;;;;12.26;100.00;99908.03;690241;28;1543;-64
2023/03/30 01:04:36;;;;;;;5.90;2.20;;;;;;;12.22;100.00;99906.38;689546;28;1495;-65
2023/03/30 01:04:57;;;;;;;4.15;2.10;;;;;;;12.20;100.00;99901.19;691204;28;1579;-63
2023/03/30 01:05:17;;;;;;;5.15;2.10;;;;;;;12.21;100.00;99900.28;690939;28;1580;-64
2023/03/30 01:05:41;;;;;;;5.55;2.13;;;;;;;12.27;100.00;99894.88;692170;28;1189;-64
2023/03/30 01:06:05;;;;;;;6.30;2.38;;;;;;;12.22;100.00;99895.91;695304;28;1106;-63
2023/03/30 01:06:28;;;;;;;8.27;2.40;;;;;;;12.18;100.00;99900.34;692468;28;1432;-63
2023/03/30 01:06:50;;;;;;;6.15;2.10;;;;;;;12.23;100.00;99889.78;693810;28;4382;-64
2023/03/30 01:07:12;;;;;;;6.03;2.53;;;;;;;12.18;100.00;99887.25;691665;28;1421;-64
2023/03/30 01:07:32;;;;;;;4.78;2.25;;;;;;;12.15;100.00;99886.47;690649;28;940;-64
2023/03/30 01:07:53;;;;;;;5.40;2.33;;;;;;;12.12;100.00;99892.63;689445;28;1409;-64
2023/03/30 01:08:15;;;;;;;6.85;2.30;;;;;;;12.15;100.00;99892.56;690122;28;1093;-63
2023/03/30 01:08:36;;;;;;;6.90;2.35;;;;;;;12.13;100.00;99883.88;690729;28;873;-63
2023/03/30 01:08:57;;;;;;;7.03;2.58;;;;;;;12.14;100.00;99888.22;691376;28;1022;-64
2023/03/30 01:09:18;;;;;;;5.53;2.35;;;;;;;12.13;100.00;99883.88;693672;28;1323;-64
2023/03/30 01:09:41;;;;;;;6.30;2.22;;;;;;;12.09;100.00;99887.47;693743;28;4422;-63
2023/03/30 01:10:03;;;;;;;6.95;2.25;;;;;;;12.07;100.00;99886.63;694670;28;1544;-64
2023/03/30 01:10:23;;;;;;;5.32;2.20;;;;;;;12.05;100.00;99885.81;695624;28;825;-64
2023/03/30 01:10:44;;;;;;;6.53;2.50;;;;;;;12.05;100.00;99889.28;695701;28;809;-63
2023/03/30 01:11:06;;;;;;;5.97;2.30;;;;;;;12.11;100.00;99890.06;694777;28;1549;-65
2023/03/30 01:11:26;;;;;;;5.28;2.03;;;;;;;12.24;100.00;99888.88;693162;28;1043;-64
2023/03/30 01:11:47;;;;;;;5.80;2.10;;;;;;;12.37;100.00;99886.81;693157;28;923;-63
2023/03/30 01:12:09;;;;;;;6.82;2.28;;;;;;;12.41;100.00;99886.69;689713;28;1453;-64
2023/03/30 01:12:30;;;;;;;5.40;2.15;;;;;;;12.43;100.00;99887.53;687072;28;3531;-64
2023/03/30 01:12:51;;;;;;;4.65;2.05;;;;;;;12.38;100.00;99888.53;687703;28;4389;-64
2023/03/30 01:13:13;;;;;;;5.43;2.07;;;;;;;12.39;100.00;99890.25;687184;28;1498;-63
2023/03/30 01:13:40;;;;;;;5.93;2.25;;;;;;;12.37;100.00;99892.91;690159;28;1221;-63
2023/03/30 01:14:04;;;;;;;6.22;2.30;;;;;;;12.41;100.00;99891.09;689939;28;1315;-64
2023/03/30 01:14:25;;;;;;;6.88;2.30;;;;;;;12.42;100.00;99892.81;687410;28;1294;-63
2023/03/30 01:14:47;;;;;;;6.15;2.30;;;;;;;12.40;100.00;99889.34;689314;28;1650;-64
2023/03/30 01:15:08;;;;;;;6.95;2.22;;;;;;;12.37;100.00;99897.28;691054;28;1488;-64
2023/03/30 01:15:33;;;;;;;5.53;2.30;;;;;;;12.38;100.00;99889.41;692765;28;907;-64
2023/03/30 01:16:12;;;;;;;5.18;1.90;;;;;;;12.39;100.00;99892.84;689900;28;4517;-64
2023/03/30 01:16:43;;;;;;;6.45;2.35;;;;;;;12.64;100.00;99889.63;692331;28;1263;-64
2023/03/30 01:17:12;;;;;;;5.47;2.30;;;;;;;12.65;100.00;99896.59;691830;28;1696;-64
2023/03/30 01:17:41;;;;;;;5.97;2.03;;;;;;;12.63;100.00;99895.75;692457;28;1449;-64
2023/03/30 01:18:07;;;;;;;6.43;2.30;;;;;;;12.59;100.00;99890.59;693259;28;1524;-65
2023/03/30 01:18:40;;;;;;;5.22;2.28;;;;;;;12.60;100.00;99889.72;692766;28;1280;-64
2023/03/30 01:19:24;;;;;;;5.82;2.00;;;;;;;12.61;100.00;99890.56;690595;28;4851;-63
2023/03/30 01:20:18;;;;;;;5.25;2.22;;;;;;;12.66;100.00;99890.47;690483;28;1129;-64
2023/03/30 01:21:09;;;;;;;6.28;2.20;;;;;;;12.60;100.00;99884.47;693181;28;1421;-63
2023/03/30 01:21:54;;;;;;;5.30;2.03;;;;;;;12.65;100.00;99886.97;693722;28;1140;-64
2023/03/30 01:22:56;;;;;;;4.70;2.00;;;;;;;12.62;100.00;99896.69;685729;28;4781;-63
2023/03/30 01:23:53;;;;;;;6.80;2.22;;;;;;;12.66;100.00;99887.84;692114;28;1121;-64
2023/03/30 01:24:26;;;;;;;5.60;2.10;;;;;;;12.77;100.00;99891.91;692237;28;1562;-64
2023/03/30 01:25:05;;;;;;;6.07;2.03;;;;;;;12.83;100.00;99896.13;691946;28;4515;-64
2023/03/30 01:26:17;;;;;;;5.75;2.20;;;;;;;13.00;100.00;99900.06;695685;28;1369;-64
2023/03/30 01:26:47;;;;;;;5.93;2.00;;;;;;;13.01;100.00;99901.78;684176;28;1040;-64
2023/03/30 01:27:23;;;;;;;5.07;2.00;;;;;;;12.89;100.00;99898.59;683947;28;1526;-64
2023/03/30 01:28:15;;;;;;;6.82;2.08;;;;;;;12.78;100.00;99898.03;682395;28;4416;-62
2023/03/30 01:28:51;;;;;;;6.93;2.00;;;;;;;12.90;100.00;99905.56;684623;28;1414;-63
2023/03/30 01:29:20;;;;;;;5.47;2.00;;;;;;;12.86;100.00;99908.28;682828;28;1574;-63
2023/03/30 01:29:56;;;;;;;6.78;2.35;;;;;;;12.81;100.00;99907.53;681483;29;1926;-63
2023/03/30 01:30:47;;;;;;;4.90;1.90;;;;;;;12.79;100.00;99902.34;681397;29;1289;-63
2023/03/30 01:31:38;;;;;;;6.10;2.20;;;;;;;12.85;100.00;99899.56;681055;28;6053;-65
2023/03/30 01:32:32;;;;;;;7.47;2.67;;;;;;;12.82;100.00;99904.91;678224;29;1471;-65
2023/03/30 01:32:55;;;;;;;6.97;2.40;;;;;;;12.73;100.00;99905.97;693386;28;924;-64
2023/03/30 01:33:55;;;;;;;8.15;2.30;;;;;;;12.66;100.00;99909.66;695703;28;939;-64
2023/03/30 01:34:31;;;;;;;4.72;2.22;;;;;;;12.60;100.00;99902.81;685636;28;4840;-64
2023/03/30 01:35:04;;;;;;;6.13;2.17;;;;;;;12.77;100.00;99906.78;687078;28;949;-64
2023/03/30 01:35:53;;;;;;;6.35;2.28;;;;;;;12.79;100.00;99904.97;693713;28;1063;-65
2023/03/30 01:36:29;;;;;;;6.13;1.95;;;;;;;12.80;100.00;99901.44;696793;28;1459;-65
2023/03/30 01:37:02;;;;;;;4.88;1.83;;;;;;;12.84;100.00;99907.50;695209;28;4422;-66
2023/03/30 01:37:48;;;;;;;5.57;1.92;;;;;;;12.87;100.00;99913.50;694525;28;762;-64
2023/03/30 01:38:54;;;;;;;5.20;2.20;;;;;;;12.84;100.00;99913.59;692859;28;1535;-64
2023/03/30 01:39:40;;;;;;;5.55;2.28;;;;;;;12.82;100.00;99920.66;680763;29;1432;-64
2023/03/30 01:40:20;;;;;;;5.70;2.13;;;;;;;12.84;100.00;99916.19;693742;28;4974;-64
2023/03/30 01:41:02;;;;;;;7.90;2.20;;;;;;;12.92;100.00;99919.50;694867;28;1493;-65
2023/03/30 01:41:34;;;;;;;5.10;1.90;;;;;;;12.92;100.00;99922.13;694453;28;1199;-64
2023/03/30 01:42:16;;;;;;;5.50;2.22;;;;;;;12.89;100.00;99922.19;691902;28;932;-64
2023/03/30 01:42:56;;;;;;;6.50;2.00;;;;;;;12.95;100.00;99924.66;691258;28;936;-64
2023/03/30 01:43:22;;;;;;;6.75;2.05;;;;;;;12.99;100.00;99917.56;688485;28;6887;-65
2023/03/30 01:43:42;;;;;;;7.53;2.00;;;;;;;12.91;100.00;99916.91;688787;28;1363;-64
2023/03/30 01:44:21;;;;;;;7.88;2.20;;;;;;;12.82;100.00;99918.03;688876;28;1548;-64
2023/03/30 01:44:54;;;;;;;6.53;2.20;;;;;;;12.76;100.00;99912.91;688621;28;909;-64
2023/03/30 01:45:37;;;;;;;5.90;2.05;;;;;;;12.73;100.00;99913.84;693108;28;1446;-64
2023/03/30 01:46:14;;;;;;;4.75;2.03;;;;;;;12.70;100.00;99913.94;686550;28;4876;-64
2023/03/30 01:46:46;;;;;;;5.13;1.98;;;;;;;12.78;100.00;99913.75;690087;28;952;-64
2023/03/30 01:47:19;;;;;;;5.07;2.10;;;;;;;12.86;100.00;99911.78;691231;28;1493;-64
2023/03/30 01:48:02;;;;;;;7.15;2.20;;;;;;;12.82;100.00;99909.28;692765;28;1424;-63
2023/03/30 01:48:44;;;;;;;8.27;2.15;;;;;;;12.76;100.00;99912.91;693176;28;900;-64
2023/03/30 01:49:07;;;;;;;6.22;2.10;;;;;;;12.70;100.00;99911.31;688223;28;4938;-64
2023/03/30 01:49:42;;;;;;;5.93;2.10;;;;;;;12.68;100.00;99909.63;687908;28;952;-64
2023/03/30 01:50:14;;;;;;;5.45;2.15;;;;;;;12.66;100.00;99909.66;683370;28;1740;-64
2023/03/30 01:50:45;;;;;;;5.07;2.05;;;;;;;12.63;100.00;99908.88;680164;28;1210;-65
2023/03/30 01:51:10;;;;;;;5.88;2.30;;;;;;;12.57;100.00;99902.91;684330;28;2169;-64
2023/03/30 01:51:41;;;;;;;7.10;2.20;;;;;;;12.59;100.00;99903.72;687561;28;881;-63
2023/03/30 01:52:18;;;;;;;7.88;2.30;;;;;;;12.58;100.00;99906.38;685872;28;6417;-64
2023/03/30 01:52:52;;;;;;;5.13;2.15;;;;;;;12.59;100.00;99903.72;690544;28;929;-64
2023/03/30 01:53:24;;;;;;;6.00;2.22;;;;;;;12.61;100.00;99906.28;690576;28;1466;-63
2023/03/30 01:53:56;;;;;;;7.25;2.10;;;;;;;12.58;100.00;99915.09;688779;28;1300;-63
2023/03/30 01:54:22;;;;;;;6.28;2.25;;;;;;;12.54;100.00;99910.81;687625;28;1144;-63
2023/03/30 01:55:09;;;;;;;5.65;2.10;;;;;;;12.59;100.00;99914.19;687572;28;4336;-63
2023/03/30 01:55:43;;;;;;;5.35;2.03;;;;;;;12.68;100.00;99912.25;692912;28;1564;-62
2023/03/30 01:56:05;;;;;;;6.63;2.00;;;;;;;12.68;100.00;99918.38;688936;28;1452;-63
2023/03/30 01:56:35;;;;;;;5.63;2.00;;;;;;;12.74;100.00;99912.13;690205;28;1354;-63
2023/03/30 01:57:12;;;;;;;5.10;2.00;;;;;;;12.69;100.00;99917.44;689878;28;1402;-63
2023/03/30 01:57:58;;;;;;;6.50;2.20;;;;;;;12.78;100.00;99916.38;687883;28;1206;-63
2023/03/30 01:58:38;;;;;;;5.70;2.00;;;;;;;12.83;100.00;99919.72;692506;28;4916;-63
2023/03/30 01:59:12;;;;;;;5.47;2.20;;;;;;;12.82;100.00;99922.38;692007;28;979;-63
2023/03/30 01:59:58;;;;;;;6.10;2.10;;;;;;;12.83;100.00;99926.75;689533;28;1248;-63
2023/03/30 02:00:22;;;;;;;7.00;2.00;;;;;;;12.75;100.00;99919.06;688109;28;2037;-63
2023/03/30 02:00:49;;;;;;;6.82;2.08;;;;;;;12.70;100.00;99923.59;688992;28;4560;-63
2023/03/30 02:01:13;;;;;;;5.30;2.15;;;;;;;12.74;100.00;99927.84;690634;28;1421;-63
2023/03/30 02:01:36;;;;;;;6.93;2.40;;;;;;;12.72;100.00;99920.03;694677;28;1012;-63
2023/03/30 02:02:02;;;;;;;7.13;2.30;;;;;;;12.78;100.00;99921.63;696160;28;861;-63
2023/03/30 02:02:29;;;;;;;7.97;2.30;;;;;;;12.79;100.00;99915.44;691598;28;1498;-63
2023/03/30 02:02:57;;;;;;;4.90;1.90;;;;;;;12.74;100.00;99915.59;691257;28;856;-63
2023/03/30 02:03:24;;;;;;;6.18;2.35;;;;;;;12.77;100.00;99914.66;689930;28;1410;-63
2023/03/30 02:03:51;;;;;;;6.90;2.58;;;;;;;12.91;100.00;99919.53;692043;28;4346;-63
2023/03/30 02:04:11;;;;;;;6.95;2.40;;;;;;;12.86;100.00;99917.03;690748;28;1562;-64
2023/03/30 02:04:38;;;;;;;7.82;2.40;;;;;;;12.80;100.00;99911.94;692697;28;1649;-63
2023/03/30 02:05:02;;;;;;;6.72;2.30;;;;;;;12.76;100.00;99907.66;690920;28;1501;-63
2023/03/30 02:05:27;;;;;;;5.72;2.53;;;;;;;12.69;100.00;99916.59;687899;28;894;-63
2023/03/30 02:05:55;;;;;;;6.13;2.10;;;;;;;12.69;100.00;99913.97;691472;28;1155;-63
2023/03/30 02:06:23;;;;;;;5.00;2.17;;;;;;;12.67;100.00;99910.53;689990;28;1105;-63